This is the latest recevied weather packets stored in our database for station/object IK2YOU-3. If no packets are shown the sender has not sent any weather packets the latest 10 day(s).
| Time | Temp. | Humidity | Pressure | Rain* | Wind** | Luminosity | Snow |
|---|---|---|---|---|---|---|---|
| 1777662983 | 17.78° C | 43% | 1022.4 hPa | 0 mm | - | 0 W/m² | - |
| 1777662255 | 17.78° C | 42% | 1022.4 hPa | 0 mm | - | 0 W/m² | - |
| 1777661657 | 18.33° C | 42% | 1022.3 hPa | 0 mm | - | 0 W/m² | - |
| 1777661055 | 18.33° C | 41% | 1022.2 hPa | 0 mm | - | 0 W/m² | - |
| 1777660454 | 18.89° C | 41% | 1022.2 hPa | 0 mm | - | 0 W/m² | - |
| 1777659854 | 18.89° C | 39% | 1022.1 hPa | 0 mm | - | 0 W/m² | - |
| 1777659384 | 19.44° C | 38% | 1022.2 hPa | 0 mm | - | 4 W/m² | - |
| 1777658654 | 19.44° C | 37% | 1022.1 hPa | 0 mm | - | 10 W/m² | - |
| 1777658054 | 20° C | 36% | 1022 hPa | 0 mm | - | 14 W/m² | - |
| 1777657454 | 20° C | 35% | 1022 hPa | 0 mm | - | 18 W/m² | - |
| 1777656855 | 20.56° C | 35% | 1022 hPa | 0 mm | - | 22 W/m² | - |
| 1777656254 | 21.11° C | 35% | 1022 hPa | 0 mm | - | 25 W/m² | - |
| 1777655657 | 21.67° C | 34% | 1022 hPa | 0 mm | - | 29 W/m² | - |
| 1777655054 | 21.67° C | 33% | 1022 hPa | 0 mm | - | 31 W/m² | - |
| 1777654452 | 21.11° C | 32% | 1022 hPa | 0 mm | - | 35 W/m² | - |
| 1777653853 | 21.11° C | 33% | 1022.1 hPa | 0 mm | - | 96 W/m² | - |
| 1777653378 | 21.67° C | 32% | 1022.2 hPa | 0 mm | - | 103 W/m² | - |
| 1777652651 | 21.67° C | 32% | 1022.3 hPa | 0 mm | - | 124 W/m² | - |
| 1777652063 | 21.67° C | 33% | 1022.3 hPa | 0 mm | - | 146 W/m² | - |
| 1777651450 | 21.67° C | 33% | 1022.4 hPa | 0 mm | - | 176 W/m² | - |
| 1777650850 | 21.67° C | 32% | 1022.4 hPa | 0 mm | - | 180 W/m² | - |
| 1777650250 | 21.67° C | 32% | 1022.6 hPa | 0 mm | - | 186 W/m² | - |
| 1777649650 | 21.67° C | 32% | 1022.8 hPa | 0 mm | - | 216 W/m² | - |
| 1777649062 | 21.67° C | 33% | 1022.8 hPa | 0 mm | - | 232 W/m² | - |
| 1777648449 | 21.67° C | 33% | 1022.9 hPa | 0 mm | - | 306 W/m² | - |
* Rain latest hour (hover to see other rain measurements)
** Current wind speed in m/s (hover to see current wind gust speed)